createdAt,value
2023-02-03T00:01:59.657Z,100025.84
2023-02-03T00:04:30.678Z,100026.66
2023-02-03T00:07:01.974Z,100042.66
2023-02-03T00:09:32.779Z,100033.50
2023-02-03T00:12:08.901Z,100033.88
2023-02-03T00:14:40.063Z,100039.97
2023-02-03T00:17:11.571Z,100040.34
2023-02-03T00:19:41.199Z,100029.72
2023-02-03T00:22:11.909Z,100032.91
2023-02-03T00:24:42.057Z,100034.22
2023-02-03T00:27:12.533Z,100045.22
2023-02-03T00:29:41.993Z,100051.19
2023-02-03T00:32:12.479Z,100034.38
2023-02-03T00:34:43.222Z,100024.41
2023-02-03T00:37:16.763Z,100019.53
2023-02-03T00:39:47.288Z,100012.91
2023-02-03T00:42:18.161Z,100003.59
2023-02-03T00:44:47.748Z,99998.59
2023-02-03T00:47:18.206Z,99981.13
2023-02-03T00:49:48.478Z,99976.47
2023-02-03T00:52:18.374Z,99971.97
2023-02-03T00:54:47.907Z,99966.00
2023-02-03T00:57:18.400Z,99974.81
2023-02-03T00:59:48.153Z,99970.81
2023-02-03T01:02:18.544Z,99960.84
2023-02-03T01:04:48.594Z,99958.16
2023-02-03T01:07:19.735Z,99947.34
2023-02-03T01:09:48.843Z,99954.50
2023-02-03T01:12:18.400Z,99948.69
2023-02-03T01:14:47.987Z,99949.34
2023-02-03T01:17:18.729Z,99942.03
2023-02-03T01:19:48.441Z,99944.31
2023-02-03T01:22:18.822Z,99939.53
2023-02-03T01:24:48.725Z,99943.19
2023-02-03T01:27:18.599Z,99933.53
2023-02-03T01:29:50.626Z,99919.34
2023-02-03T01:32:19.525Z,99910.41
2023-02-03T01:34:48.571Z,99916.22
2023-02-03T01:40:20.490Z,99914.03
2023-02-03T01:42:52.434Z,99926.88
2023-02-03T01:45:25.019Z,99927.50
2023-02-03T01:48:04.782Z,99929.41
2023-02-03T01:50:43.784Z,99926.59
2023-02-03T01:53:15.984Z,99920.53
2023-02-03T01:55:51.501Z,99907.22
2023-02-03T01:58:32.853Z,99905.19
2023-02-03T02:01:04.119Z,99906.84
2023-02-03T02:03:59.443Z,99908.53
2023-02-03T02:06:30.939Z,99918.50
2023-02-03T02:09:03.186Z,99904.69
2023-02-03T02:11:35.937Z,99905.06
2023-02-03T02:14:04.844Z,99899.03
2023-02-03T02:17:01.817Z,99902.81
2023-02-03T02:20:08.005Z,99885.53
2023-02-03T02:23:20.278Z,99891.56
2023-02-03T02:25:56.485Z,99892.34
2023-02-03T02:28:56.224Z,99887.34
2023-02-03T02:31:42.228Z,99887.59
2023-02-03T02:34:20.165Z,99886.47
2023-02-03T02:37:00.744Z,99894.00
2023-02-03T02:39:48.908Z,99879.84
2023-02-03T02:42:32.389Z,99872.25
2023-02-03T02:45:19.071Z,99859.75
2023-02-03T02:47:49.338Z,99856.91
2023-02-03T02:50:28.942Z,99862.00
2023-02-03T02:53:01.008Z,99855.16
2023-02-03T02:58:21.543Z,99846.56
2023-02-03T03:00:51.157Z,99849.00
2023-02-03T03:06:14.537Z,99845.09
2023-02-03T03:08:51.591Z,99842.50
2023-02-03T03:11:21.103Z,99845.06
2023-02-03T03:13:55.731Z,99840.13
2023-02-03T03:16:28.674Z,99826.63
2023-02-03T03:19:04.602Z,99826.28
2023-02-03T03:21:41.629Z,99811.41
2023-02-03T03:24:15.859Z,99816.50
2023-02-03T03:27:05.071Z,99821.22
2023-02-03T03:32:25.841Z,99829.38
2023-02-03T03:34:56.275Z,99838.06
2023-02-03T03:37:35.374Z,99838.06
2023-02-03T03:40:13.073Z,99838.06
2023-02-03T03:42:52.253Z,99849.28
2023-02-03T03:46:02.622Z,99855.78
2023-02-03T03:48:54.111Z,99860.88
2023-02-03T03:51:48.836Z,99878.66
2023-02-03T03:54:24.576Z,99877.94
2023-02-03T03:57:15.795Z,99884.63
2023-02-03T03:59:50.026Z,99873.66
2023-02-03T04:02:22.567Z,99861.88
2023-02-03T04:04:52.559Z,99859.53
2023-02-03T04:07:22.598Z,99856.03
2023-02-03T04:09:52.045Z,99851.22
2023-02-03T04:12:24.684Z,99853.91
2023-02-03T04:14:55.520Z,99844.44
2023-02-03T04:17:24.690Z,99839.41
2023-02-03T04:19:55.738Z,99843.06
2023-02-03T04:22:25.796Z,99827.44
2023-02-03T04:25:01.218Z,99827.25
2023-02-03T04:27:31.683Z,99837.72
2023-02-03T04:30:02.440Z,99828.13
2023-02-03T04:32:32.204Z,99821.09
2023-02-03T04:35:03.016Z,99820.47
2023-02-03T04:37:32.808Z,99819.72
2023-02-03T04:40:03.403Z,99806.88
2023-02-03T04:42:32.514Z,99804.53
2023-02-03T04:45:02.776Z,99798.28
2023-02-03T04:47:32.661Z,99806.81
2023-02-03T04:50:03.849Z,99798.00
2023-02-03T04:52:33.968Z,99785.66
2023-02-03T04:55:03.444Z,99784.22
2023-02-03T04:57:32.685Z,99779.22
2023-02-03T05:00:02.853Z,99776.63
2023-02-03T05:02:35.292Z,99771.41
2023-02-03T05:05:05.139Z,99763.38
2023-02-03T05:07:36.056Z,99772.66
2023-02-03T05:10:06.818Z,99767.16
2023-02-03T05:12:38.270Z,99751.56
2023-02-03T05:15:35.115Z,99759.88
2023-02-03T05:18:06.770Z,99757.84
2023-02-03T05:20:37.933Z,99763.59
2023-02-03T05:23:08.370Z,99772.13
2023-02-03T05:25:38.924Z,99778.88
2023-02-03T05:28:08.668Z,99765.16
2023-02-03T05:30:38.822Z,99758.56
2023-02-03T05:33:10.307Z,99753.22
2023-02-03T05:35:39.993Z,99740.16
2023-02-03T05:38:12.459Z,99731.97
2023-02-03T05:41:01.301Z,99726.72
2023-02-03T05:43:31.814Z,99735.88
2023-02-03T05:46:05.665Z,99718.00
2023-02-03T05:48:37.465Z,99719.31
2023-02-03T05:51:10.233Z,99712.66
2023-02-03T05:53:40.272Z,99707.34
2023-02-03T05:56:11.254Z,99694.81
2023-02-03T05:58:44.545Z,99692.91
2023-02-03T06:04:02.072Z,99698.06
2023-02-03T06:06:36.116Z,99686.75
2023-02-03T06:09:08.377Z,99687.25
2023-02-03T06:11:38.821Z,99686.91
2023-02-03T06:14:09.106Z,99687.78
2023-02-03T06:16:38.492Z,99688.94
2023-02-03T06:19:09.576Z,99695.16
2023-02-03T06:21:38.732Z,99691.50
2023-02-03T06:24:12.759Z,99692.03
2023-02-03T06:26:42.343Z,99691.50
2023-02-03T06:29:12.411Z,99699.47
2023-02-03T06:31:44.439Z,99689.19
2023-02-03T06:34:14.589Z,99689.16
2023-02-03T06:36:46.057Z,99703.00
2023-02-03T06:39:16.267Z,99691.34
2023-02-03T06:41:46.789Z,99700.38
2023-02-03T06:44:17.758Z,99685.22
2023-02-03T06:46:48.952Z,99686.28
2023-02-03T06:49:20.559Z,99690.84
2023-02-03T06:51:53.799Z,99686.38
2023-02-03T06:54:30.145Z,99684.22
2023-02-03T06:57:02.889Z,99702.47
2023-02-03T06:59:34.612Z,99695.13
2023-02-03T07:02:04.767Z,99694.63
2023-02-03T07:04:36.504Z,99692.28
2023-02-03T07:07:08.666Z,99695.47
2023-02-03T07:09:38.674Z,99688.88
2023-02-03T07:12:10.793Z,99694.91
2023-02-03T07:14:40.401Z,99695.06
2023-02-03T07:17:12.502Z,99696.22
2023-02-03T07:19:46.064Z,99691.06
2023-02-03T07:22:16.638Z,99699.53
2023-02-03T07:24:48.071Z,99696.50
2023-02-03T07:27:16.790Z,99710.69
2023-02-03T07:29:47.262Z,99700.53
2023-02-03T07:32:16.720Z,99702.19
2023-02-03T07:34:48.930Z,99699.84
2023-02-03T07:37:19.834Z,99704.97
2023-02-03T07:39:51.240Z,99689.47
2023-02-03T07:42:20.625Z,99695.97
2023-02-03T07:44:54.919Z,99683.69
2023-02-03T07:47:25.723Z,99693.50
2023-02-03T07:49:57.912Z,99699.00
2023-02-03T07:52:32.646Z,99683.41
2023-02-03T07:55:04.069Z,99685.44
2023-02-03T07:57:35.903Z,99691.41
2023-02-03T08:00:06.470Z,99689.63
2023-02-03T08:02:47.031Z,99697.06
2023-02-03T08:05:17.690Z,99688.28
2023-02-03T08:07:47.764Z,99705.75
2023-02-03T08:10:20.549Z,99687.00
2023-02-03T08:12:51.009Z,99693.81
2023-02-03T08:15:20.816Z,99688.50
2023-02-03T08:17:52.007Z,99689.03
2023-02-03T08:20:22.460Z,99692.38
2023-02-03T08:22:52.830Z,99674.44
2023-02-03T08:25:22.887Z,99689.50
2023-02-03T08:27:54.621Z,99687.72
2023-02-03T08:30:23.735Z,99682.69
2023-02-03T08:32:55.985Z,99673.38
2023-02-03T08:35:30.616Z,99665.41
2023-02-03T08:38:02.348Z,99675.03
2023-02-03T08:40:32.212Z,99676.69
2023-02-03T08:43:02.098Z,99662.91
2023-02-03T08:45:31.710Z,99665.44
2023-02-03T08:48:02.731Z,99667.91
2023-02-03T08:50:32.111Z,99659.97
2023-02-03T08:53:02.656Z,99665.06
2023-02-03T08:55:32.791Z,99665.03
2023-02-03T08:58:02.322Z,99675.91
2023-02-03T09:00:32.498Z,99674.72
2023-02-03T09:03:02.320Z,99680.69
2023-02-03T09:05:34.917Z,99679.31
2023-02-03T09:08:04.946Z,99676.66
2023-02-03T09:10:34.508Z,99673.50
2023-02-03T09:13:03.902Z,99666.91
2023-02-03T09:15:38.640Z,99676.69
2023-02-03T09:18:08.105Z,99683.72
2023-02-03T09:20:38.690Z,99682.44
2023-02-03T09:23:08.517Z,99681.72
2023-02-03T09:25:45.922Z,99685.84
2023-02-03T09:28:15.836Z,99690.81
2023-02-03T09:30:44.914Z,99696.47
2023-02-03T09:33:14.514Z,99697.47
2023-02-03T09:35:43.946Z,99699.13
2023-02-03T09:38:12.459Z,99695.00
2023-02-03T09:40:43.029Z,99700.13
2023-02-03T09:43:14.262Z,99699.97
2023-02-03T09:45:45.109Z,99704.63
2023-02-03T09:48:24.832Z,99706.81
2023-02-03T09:50:55.931Z,99709.34
2023-02-03T09:53:46.917Z,99715.63
2023-02-03T09:56:38.149Z,99710.25
2023-02-03T09:59:07.633Z,99707.47
2023-02-03T10:02:03.976Z,99720.59
2023-02-03T10:04:46.436Z,99707.94
2023-02-03T10:07:42.767Z,99726.69
2023-02-03T10:10:37.965Z,99726.56
2023-02-03T10:13:30.931Z,99716.41
2023-02-03T10:16:16.672Z,99715.81
2023-02-03T10:18:57.599Z,99727.84
2023-02-03T10:21:57.595Z,99732.19
2023-02-03T10:24:44.621Z,99726.84
2023-02-03T10:27:24.293Z,99732.63
2023-02-03T10:29:58.128Z,99725.53
2023-02-03T10:32:32.116Z,99739.34
2023-02-03T10:35:02.904Z,99743.00
2023-02-03T10:37:38.677Z,99752.50
2023-02-03T10:40:12.695Z,99758.16
2023-02-03T10:43:04.184Z,99781.28
2023-02-03T10:45:38.551Z,99799.06
2023-02-03T10:48:15.936Z,99781.28
2023-02-03T10:50:52.316Z,99782.94
2023-02-03T10:53:32.590Z,99779.31
2023-02-03T10:56:14.820Z,99786.78
2023-02-03T10:58:56.019Z,99795.44
2023-02-03T11:01:48.592Z,99791.75
2023-02-03T11:04:32.307Z,99825.03
2023-02-03T11:07:07.485Z,99828.69
2023-02-03T11:09:43.802Z,99825.00
2023-02-03T11:12:18.057Z,99827.94
2023-02-03T11:14:54.468Z,99828.75
2023-02-03T11:17:30.831Z,99839.31
2023-02-03T11:20:18.200Z,99842.97
2023-02-03T11:22:49.043Z,99858.03
2023-02-03T11:25:33.077Z,99869.16
2023-02-03T11:28:07.777Z,99874.13
2023-02-03T11:30:39.129Z,99896.38
2023-02-03T11:33:20.495Z,99911.59
2023-02-03T11:36:06.316Z,99940.91
2023-02-03T11:38:43.908Z,99959.56
2023-02-03T11:41:24.017Z,99970.91
2023-02-03T11:43:56.997Z,99988.69
2023-02-03T11:46:33.156Z,99972.16
2023-02-03T11:49:20.222Z,99978.13
2023-02-03T11:52:20.453Z,99987.53
2023-02-03T11:55:10.836Z,99991.78
2023-02-03T11:58:15.939Z,99988.66
2023-02-03T12:00:56.086Z,100009.97
2023-02-03T12:03:53.873Z,100013.56
2023-02-03T12:06:50.306Z,100029.72
2023-02-03T12:09:48.918Z,100037.13
2023-02-03T12:12:35.315Z,100044.78
2023-02-03T12:15:23.386Z,100064.66
2023-02-03T12:18:08.236Z,100080.16
2023-02-03T12:20:51.100Z,100097.59
2023-02-03T12:23:28.434Z,100109.59
2023-02-03T12:26:11.870Z,100115.59
2023-02-03T12:29:07.139Z,100125.75
2023-02-03T12:31:43.150Z,100118.03
2023-02-03T12:34:30.831Z,100143.94
2023-02-03T12:37:28.435Z,100129.72
2023-02-03T12:40:13.374Z,100159.88
2023-02-03T12:42:55.796Z,100146.94
2023-02-03T12:45:32.706Z,100159.13
2023-02-03T12:48:13.333Z,100160.06
2023-02-03T12:50:49.465Z,100174.84
2023-02-03T12:53:33.785Z,100165.28
2023-02-03T12:56:08.570Z,100158.47
2023-02-03T12:58:45.354Z,100165.34
2023-02-03T13:01:38.192Z,100178.44
2023-02-03T13:04:26.357Z,100173.97
2023-02-03T13:07:04.094Z,100184.94
2023-02-03T13:09:44.369Z,100197.47
2023-02-03T13:12:38.175Z,100186.97
2023-02-03T13:15:40.207Z,100205.59
2023-02-03T13:18:35.186Z,100203.41
2023-02-03T13:21:06.212Z,100215.06
2023-02-03T13:23:37.230Z,100225.00
2023-02-03T13:26:34.849Z,100240.59
2023-02-03T13:29:24.633Z,100243.28
2023-02-03T13:32:23.465Z,100256.50
2023-02-03T13:35:14.644Z,100263.59
2023-02-03T13:37:53.142Z,100283.69
2023-02-03T13:40:49.270Z,100277.09
2023-02-03T13:43:38.595Z,100278.03
2023-02-03T13:46:24.784Z,100291.47
2023-02-03T13:48:59.143Z,100305.81
2023-02-03T13:51:37.801Z,100322.88
2023-02-03T13:54:31.622Z,100347.88
2023-02-03T13:57:03.958Z,100334.69
2023-02-03T13:59:46.544Z,100347.66
2023-02-03T14:02:25.107Z,100337.81
2023-02-03T14:04:59.925Z,100337.69
2023-02-03T14:07:40.588Z,100348.25
2023-02-03T14:10:26.721Z,100351.16
2023-02-03T14:13:04.121Z,100345.50
2023-02-03T14:15:36.807Z,100357.97
2023-02-03T14:18:36.399Z,100373.56
2023-02-03T14:21:18.393Z,100371.88
2023-02-03T14:23:53.359Z,100385.53
2023-02-03T14:26:25.498Z,100412.19
2023-02-03T14:28:59.397Z,100394.78
2023-02-03T14:31:31.837Z,100417.13
2023-02-03T14:34:16.929Z,100383.75
2023-02-03T14:36:56.880Z,100398.63
2023-02-03T14:39:41.789Z,100404.88
2023-02-03T14:42:53.882Z,100399.19
2023-02-03T14:45:41.147Z,100416.00
2023-02-03T14:48:28.888Z,100428.22
2023-02-03T14:51:04.755Z,100442.88
2023-02-03T14:53:54.146Z,100424.41
2023-02-03T14:56:54.573Z,100435.16
2023-02-03T14:59:30.636Z,100426.31
2023-02-03T15:02:14.164Z,100432.66
2023-02-03T15:04:53.049Z,100453.50
2023-02-03T15:07:50.667Z,100467.94
2023-02-03T15:10:31.935Z,100473.53
2023-02-03T15:13:02.553Z,100518.91
2023-02-03T15:15:34.844Z,100509.53
2023-02-03T15:18:23.681Z,100513.91
2023-02-03T15:20:56.339Z,100517.47
2023-02-03T15:23:44.181Z,100541.72
2023-02-03T15:26:24.767Z,100530.56
2023-02-03T15:29:03.107Z,100540.25
2023-02-03T15:31:36.482Z,100550.28
2023-02-03T15:34:21.263Z,100565.00
2023-02-03T15:36:56.347Z,100574.16
2023-02-03T15:39:30.740Z,100562.28
2023-02-03T15:42:04.417Z,100567.03
2023-02-03T15:44:40.547Z,100569.25
2023-02-03T15:47:30.739Z,100577.75
2023-02-03T15:50:40.512Z,100589.41
2023-02-03T15:53:41.102Z,100576.91
2023-02-03T15:56:35.902Z,100585.88
2023-02-03T15:59:36.001Z,100595.78
2023-02-03T16:02:24.241Z,100585.75
2023-02-03T16:04:53.712Z,100603.03
2023-02-03T16:07:30.727Z,100598.75
2023-02-03T16:10:02.718Z,100595.25
2023-02-03T16:12:33.539Z,100601.63
2023-02-03T16:15:04.833Z,100590.44
2023-02-03T16:17:37.183Z,100594.06
2023-02-03T16:20:13.152Z,100596.75
2023-02-03T16:23:08.731Z,100586.97
2023-02-03T16:25:39.401Z,100585.56
2023-02-03T16:28:35.868Z,100597.63
2023-02-03T16:31:36.707Z,100609.22
2023-02-03T16:34:38.237Z,100600.94
2023-02-03T16:37:40.541Z,100600.53
2023-02-03T16:40:36.936Z,100594.69
2023-02-03T16:43:31.858Z,100605.00
2023-02-03T16:46:20.719Z,100603.22
2023-02-03T16:49:09.026Z,100584.69
2023-02-03T16:51:44.519Z,100602.75
2023-02-03T16:54:19.712Z,100591.63
2023-02-03T16:56:51.132Z,100585.91
2023-02-03T16:59:22.041Z,100604.56
2023-02-03T17:01:51.663Z,100602.50
2023-02-03T17:04:20.836Z,100600.53
2023-02-03T17:06:52.602Z,100599.38
2023-02-03T17:09:25.655Z,100617.38
2023-02-03T17:11:56.707Z,100623.22
2023-02-03T17:14:28.734Z,100617.16
2023-02-03T17:17:01.842Z,100606.72
2023-02-03T17:19:32.517Z,100625.66
2023-02-03T17:22:03.208Z,100601.94
2023-02-03T17:24:32.585Z,100608.84
2023-02-03T17:27:02.740Z,100602.63
2023-02-03T17:29:32.567Z,100595.34
2023-02-03T17:32:02.793Z,100613.44
2023-02-03T17:34:34.904Z,100598.53
2023-02-03T17:37:04.497Z,100605.59
2023-02-03T17:53:31.760Z,100627.25
2023-02-03T17:56:15.818Z,100609.50
2023-02-03T17:58:46.982Z,100634.84
2023-02-03T18:01:20.157Z,100622.16
2023-02-03T18:03:56.416Z,100646.75
2023-02-03T18:06:31.047Z,100623.94
2023-02-03T18:09:03.850Z,100635.97
2023-02-03T18:11:35.627Z,100623.59
2023-02-03T18:14:06.790Z,100637.28
2023-02-03T18:16:36.613Z,100614.94
2023-02-03T18:19:11.207Z,100634.00
2023-02-03T18:21:41.997Z,100631.66
2023-02-03T18:24:15.805Z,100620.81
2023-02-03T18:26:53.154Z,100621.75
2023-02-03T18:29:25.088Z,100623.63
2023-02-03T18:31:54.917Z,100632.28
2023-02-03T18:34:24.484Z,100619.63
2023-02-03T18:36:54.878Z,100620.72
2023-02-03T18:39:24.051Z,100629.22
2023-02-03T18:41:54.908Z,100629.50
2023-02-03T18:44:28.793Z,100623.03
2023-02-03T18:47:07.396Z,100628.94
2023-02-03T18:49:37.490Z,100651.25
2023-02-03T18:52:07.319Z,100658.03
2023-02-03T18:54:37.168Z,100654.28
2023-02-03T18:57:07.845Z,100654.66
2023-02-03T18:59:36.996Z,100678.28
2023-02-03T19:02:06.719Z,100660.16
2023-02-03T19:04:36.671Z,100671.59
2023-02-03T19:07:06.801Z,100690.00
2023-02-03T19:09:36.350Z,100670.50
2023-02-03T19:12:06.608Z,100684.94
2023-02-03T19:14:36.638Z,100686.09
2023-02-03T19:17:06.583Z,100685.50
2023-02-03T19:19:35.354Z,100690.00
2023-02-03T19:22:04.428Z,100687.75
2023-02-03T19:24:34.548Z,100698.06
2023-02-03T19:27:03.256Z,100685.03
2023-02-03T19:29:33.643Z,100697.03
2023-02-03T19:32:04.901Z,100718.91
2023-02-03T19:34:35.876Z,100715.63
2023-02-03T19:37:05.360Z,100696.94
2023-02-03T19:39:34.890Z,100720.59
2023-02-03T19:42:04.847Z,100707.81
2023-02-03T19:44:34.963Z,100721.84
2023-02-03T19:47:04.546Z,100701.97
2023-02-03T19:49:33.614Z,100753.31
2023-02-03T19:52:04.006Z,100738.75
2023-02-03T19:54:33.693Z,100735.09
2023-02-03T19:57:04.053Z,100718.88
2023-02-03T19:59:33.648Z,100734.25
2023-02-03T20:02:13.798Z,100735.19
2023-02-03T20:04:44.927Z,100757.53
2023-02-03T20:07:14.918Z,100775.28
2023-02-03T20:09:44.268Z,100755.13
2023-02-03T20:12:14.815Z,100744.78
2023-02-03T20:14:44.439Z,100753.59
2023-02-03T20:17:14.892Z,100761.00
2023-02-03T20:19:44.384Z,100780.72
2023-02-03T20:22:13.325Z,100758.78
2023-02-03T20:24:43.590Z,100753.56
2023-02-03T20:27:13.011Z,100792.97
2023-02-03T20:29:43.989Z,100792.03
2023-02-03T20:32:14.555Z,100793.53
2023-02-03T20:34:43.940Z,100793.44
2023-02-03T20:37:14.526Z,100801.22
2023-02-03T20:39:44.251Z,100823.25
2023-02-03T20:42:20.432Z,100815.94
2023-02-03T20:44:49.623Z,100822.28
2023-02-03T20:47:23.208Z,100838.28
2023-02-03T20:49:53.027Z,100833.97
2023-02-03T20:52:23.091Z,100849.22
2023-02-03T20:54:52.855Z,100855.88
2023-02-03T20:57:23.890Z,100870.94
2023-02-03T20:59:53.278Z,100866.44
2023-02-03T21:02:46.887Z,100891.13
2023-02-03T21:05:38.666Z,100904.75
2023-02-03T21:08:16.275Z,100902.13
2023-02-03T21:10:46.724Z,100919.06
2023-02-03T21:13:21.653Z,100929.47
2023-02-03T21:16:01.473Z,100940.59
2023-02-03T21:18:48.318Z,100932.22
2023-02-03T21:21:44.347Z,100942.59
2023-02-03T21:24:38.784Z,100956.16
2023-02-03T21:27:31.942Z,100962.66
2023-02-03T21:30:09.174Z,100970.41
2023-02-03T21:33:39.293Z,100973.78
2023-02-03T21:36:20.387Z,100987.41
2023-02-03T21:38:59.317Z,100990.81
2023-02-03T21:41:34.616Z,101003.03
2023-02-03T21:44:04.094Z,101012.59
2023-02-03T21:46:34.946Z,101015.44
2023-02-03T21:49:04.821Z,101026.97
2023-02-03T21:51:40.568Z,101015.34
2023-02-03T21:54:35.142Z,101026.47
2023-02-03T21:57:04.894Z,101045.56
2023-02-03T21:59:48.508Z,101065.34
2023-02-03T22:02:40.937Z,101080.97
2023-02-03T22:05:17.241Z,101062.75
2023-02-03T22:07:48.129Z,101085.91
2023-02-03T22:10:17.160Z,101088.22
2023-02-03T22:12:46.780Z,101105.81
2023-02-03T22:15:16.406Z,101094.31
2023-02-03T22:17:49.084Z,101105.66
2023-02-03T22:20:20.673Z,101106.78
2023-02-03T22:22:51.273Z,101114.53
2023-02-03T22:25:20.783Z,101117.69
2023-02-03T22:27:50.422Z,101116.66
2023-02-03T22:30:21.117Z,101125.38
2023-02-03T22:32:51.920Z,101124.47
2023-02-03T22:35:20.860Z,101154.25
2023-02-03T22:37:53.060Z,101152.78
2023-02-03T22:40:24.702Z,101152.84
2023-02-03T22:42:58.053Z,101178.56
2023-02-03T22:45:31.184Z,101175.19
2023-02-03T22:48:03.383Z,101166.59
2023-02-03T22:50:35.863Z,101181.53
2023-02-03T22:53:07.224Z,101180.88
2023-02-03T22:55:39.114Z,101192.47
2023-02-03T22:58:09.002Z,101209.91
2023-02-03T23:00:39.488Z,101215.41
2023-02-03T23:03:09.286Z,101220.34
2023-02-03T23:05:39.953Z,101225.47
2023-02-03T23:08:10.938Z,101223.63
2023-02-03T23:10:41.227Z,101222.00
2023-02-03T23:13:12.057Z,101236.00
2023-02-03T23:15:42.927Z,101256.56
2023-02-03T23:18:12.688Z,101228.22
2023-02-03T23:20:42.741Z,101255.22
2023-02-03T23:23:13.093Z,101256.88
2023-02-03T23:25:43.252Z,101253.75
2023-02-03T23:28:12.581Z,101257.13
2023-02-03T23:30:41.447Z,101291.06
2023-02-03T23:33:13.213Z,101264.91
2023-02-03T23:35:50.466Z,101293.50
2023-02-03T23:38:20.672Z,101285.72
2023-02-03T23:40:52.608Z,101299.56
2023-02-03T23:43:22.952Z,101306.84
2023-02-03T23:45:52.418Z,101322.81
2023-02-03T23:48:21.309Z,101311.88
2023-02-03T23:50:52.811Z,101311.75
2023-02-03T23:53:22.455Z,101320.28
2023-02-03T23:55:52.167Z,101329.44
2023-02-03T23:58:22.359Z,101335.50
